Terminal Aerodrome Forecast
Issued by NWS

Home | Current Version | Previous Version | Text Only | Print | Product List | Glossary On
Versions: 1 2 3 4 5 6 7 8 9 10 11 12 13 14 15 16 17 18 19 20 21
000
FTUS43 KEAX 261100
TAFMKC
TAF
KMKC 261136Z 2612/2712 20009KT P6SM SKC
     FM261900 22004KT P6SM -DZ BKN020
     FM270100 28005KT 6SM -RA BR OVC015
     FM270600 31007KT 5SM -RASN BR OVC010=

USA.gov is the U.S. government's official web portal to all federal, state and local government web resources and services.